sensor_id;sensor_type;location;lat;lon;timestamp;P1;durP1;ratioP1;P2;durP2;ratioP2
72273;SDS011;60208;48.692;8.948;2022-11-20T00:02:24;8.18;;;5.72;;
72273;SDS011;60208;48.692;8.948;2022-11-20T00:04:49;7.93;;;5.03;;
72273;SDS011;60208;48.692;8.948;2022-11-20T00:07:14;7.00;;;5.50;;
72273;SDS011;60208;48.692;8.948;2022-11-20T00:09:40;6.72;;;5.45;;
72273;SDS011;60208;48.692;8.948;2022-11-20T00:12:05;8.85;;;5.47;;
72273;SDS011;60208;48.692;8.948;2022-11-20T00:14:31;7.00;;;5.50;;
72273;SDS011;60208;48.692;8.948;2022-11-20T00:16:56;6.93;;;5.55;;
72273;SDS011;60208;48.692;8.948;2022-11-20T00:19:21;7.43;;;5.32;;
72273;SDS011;60208;48.692;8.948;2022-11-20T00:21:46;8.95;;;5.35;;
72273;SDS011;60208;48.692;8.948;2022-11-20T00:24:12;10.45;;;5.32;;
72273;SDS011;60208;48.692;8.948;2022-11-20T00:26:37;5.72;;;5.13;;
72273;SDS011;60208;48.692;8.948;2022-11-20T00:29:03;7.88;;;5.40;;
72273;SDS011;60208;48.692;8.948;2022-11-20T00:31:29;7.90;;;5.65;;
72273;SDS011;60208;48.692;8.948;2022-11-20T00:33:55;7.50;;;5.68;;
72273;SDS011;60208;48.692;8.948;2022-11-20T00:36:21;6.18;;;5.00;;
72273;SDS011;60208;48.692;8.948;2022-11-20T00:38:50;9.75;;;4.95;;
72273;SDS011;60208;48.692;8.948;2022-11-20T00:41:19;7.53;;;4.60;;
72273;SDS011;60208;48.692;8.948;2022-11-20T00:43:45;6.32;;;4.72;;
72273;SDS011;60208;48.692;8.948;2022-11-20T00:46:17;5.30;;;4.80;;
72273;SDS011;60208;48.692;8.948;2022-11-20T00:48:44;5.53;;;4.60;;
72273;SDS011;60208;48.692;8.948;2022-11-20T00:51:14;5.30;;;4.18;;
72273;SDS011;60208;48.692;8.948;2022-11-20T00:53:40;6.50;;;4.50;;
72273;SDS011;60208;48.692;8.948;2022-11-20T00:56:07;5.07;;;4.28;;
72273;SDS011;60208;48.692;8.948;2022-11-20T00:58:36;7.35;;;4.40;;
72273;SDS011;60208;48.692;8.948;2022-11-20T01:01:10;7.97;;;4.45;;
72273;SDS011;60208;48.692;8.948;2022-11-20T01:03:43;6.38;;;4.43;;
72273;SDS011;60208;48.692;8.948;2022-11-20T01:08:36;6.78;;;4.22;;
72273;SDS011;60208;48.692;8.948;2022-11-20T01:11:02;7.00;;;4.45;;
72273;SDS011;60208;48.692;8.948;2022-11-20T01:13:30;6.63;;;4.15;;
72273;SDS011;60208;48.692;8.948;2022-11-20T01:16:03;5.97;;;4.20;;
72273;SDS011;60208;48.692;8.948;2022-11-20T01:18:29;6.10;;;4.00;;
72273;SDS011;60208;48.692;8.948;2022-11-20T01:20:54;4.88;;;3.75;;
72273;SDS011;60208;48.692;8.948;2022-11-20T01:23:19;5.55;;;3.67;;
72273;SDS011;60208;48.692;8.948;2022-11-20T01:25:45;5.65;;;3.80;;
72273;SDS011;60208;48.692;8.948;2022-11-20T01:28:10;4.85;;;3.65;;
72273;SDS011;60208;48.692;8.948;2022-11-20T01:30:35;4.47;;;3.58;;
72273;SDS011;60208;48.692;8.948;2022-11-20T01:33:01;4.28;;;3.70;;
72273;SDS011;60208;48.692;8.948;2022-11-20T01:35:26;4.57;;;4.18;;
72273;SDS011;60208;48.692;8.948;2022-11-20T01:37:51;5.38;;;4.35;;
72273;SDS011;60208;48.692;8.948;2022-11-20T01:40:17;5.70;;;3.95;;
72273;SDS011;60208;48.692;8.948;2022-11-20T01:42:47;6.40;;;4.30;;
72273;SDS011;60208;48.692;8.948;2022-11-20T01:48:42;5.40;;;4.38;;
72273;SDS011;60208;48.692;8.948;2022-11-20T01:51:22;6.20;;;4.43;;
72273;SDS011;60208;48.692;8.948;2022-11-20T01:54:12;7.40;;;4.90;;
72273;SDS011;60208;48.692;8.948;2022-11-20T01:56:43;6.00;;;4.55;;
72273;SDS011;60208;48.692;8.948;2022-11-20T01:59:09;5.72;;;4.10;;
72273;SDS011;60208;48.692;8.948;2022-11-20T02:01:37;6.18;;;4.20;;
72273;SDS011;60208;48.692;8.948;2022-11-20T02:04:04;5.72;;;4.43;;
72273;SDS011;60208;48.692;8.948;2022-11-20T02:06:30;6.40;;;4.32;;
72273;SDS011;60208;48.692;8.948;2022-11-20T02:08:58;5.38;;;4.20;;
72273;SDS011;60208;48.692;8.948;2022-11-20T02:11:23;6.00;;;4.68;;
72273;SDS011;60208;48.692;8.948;2022-11-20T02:13:49;7.50;;;4.47;;
72273;SDS011;60208;48.692;8.948;2022-11-20T02:18:49;7.50;;;5.00;;
72273;SDS011;60208;48.692;8.948;2022-11-20T02:27:02;6.53;;;4.70;;
72273;SDS011;60208;48.692;8.948;2022-11-20T02:34:54;7.18;;;5.25;;
72273;SDS011;60208;48.692;8.948;2022-11-20T02:37:20;6.88;;;5.35;;
72273;SDS011;60208;48.692;8.948;2022-11-20T02:39:47;8.30;;;5.72;;
72273;SDS011;60208;48.692;8.948;2022-11-20T02:42:13;6.88;;;5.40;;
72273;SDS011;60208;48.692;8.948;2022-11-20T02:44:38;6.30;;;5.50;;
72273;SDS011;60208;48.692;8.948;2022-11-20T02:47:04;8.50;;;5.75;;
72273;SDS011;60208;48.692;8.948;2022-11-20T02:49:29;7.18;;;5.63;;
72273;SDS011;60208;48.692;8.948;2022-11-20T02:51:54;7.63;;;6.00;;
72273;SDS011;60208;48.692;8.948;2022-11-20T02:54:20;8.02;;;5.90;;
72273;SDS011;60208;48.692;8.948;2022-11-20T02:56:45;9.18;;;5.97;;
72273;SDS011;60208;48.692;8.948;2022-11-20T02:59:11;7.57;;;6.05;;
72273;SDS011;60208;48.692;8.948;2022-11-20T03:01:36;9.15;;;6.05;;
72273;SDS011;60208;48.692;8.948;2022-11-20T03:04:01;8.60;;;6.50;;
72273;SDS011;60208;48.692;8.948;2022-11-20T03:06:27;8.63;;;5.97;;
72273;SDS011;60208;48.692;8.948;2022-11-20T03:08:52;8.70;;;6.18;;
72273;SDS011;60208;48.692;8.948;2022-11-20T03:11:17;8.57;;;6.03;;
72273;SDS011;60208;48.692;8.948;2022-11-20T03:13:43;7.72;;;5.60;;
72273;SDS011;60208;48.692;8.948;2022-11-20T03:16:13;13.27;;;6.63;;
72273;SDS011;60208;48.692;8.948;2022-11-20T03:18:40;9.52;;;6.72;;
72273;SDS011;60208;48.692;8.948;2022-11-20T03:21:06;11.35;;;7.03;;
72273;SDS011;60208;48.692;8.948;2022-11-20T03:23:32;8.38;;;6.70;;
72273;SDS011;60208;48.692;8.948;2022-11-20T03:26:08;8.27;;;5.85;;
72273;SDS011;60208;48.692;8.948;2022-11-20T03:28:34;10.23;;;6.28;;
72273;SDS011;60208;48.692;8.948;2022-11-20T03:31:04;8.02;;;6.45;;
72273;SDS011;60208;48.692;8.948;2022-11-20T03:33:37;9.57;;;6.47;;
72273;SDS011;60208;48.692;8.948;2022-11-20T03:36:06;6.75;;;6.05;;
72273;SDS011;60208;48.692;8.948;2022-11-20T03:38:34;9.77;;;7.07;;
72273;SDS011;60208;48.692;8.948;2022-11-20T03:41:00;9.55;;;6.80;;
72273;SDS011;60208;48.692;8.948;2022-11-20T03:43:27;8.95;;;7.20;;
72273;SDS011;60208;48.692;8.948;2022-11-20T03:45:52;9.70;;;7.15;;
72273;SDS011;60208;48.692;8.948;2022-11-20T03:48:18;9.93;;;6.82;;
72273;SDS011;60208;48.692;8.948;2022-11-20T03:50:43;8.30;;;5.85;;
72273;SDS011;60208;48.692;8.948;2022-11-20T03:53:09;8.60;;;6.75;;
72273;SDS011;60208;48.692;8.948;2022-11-20T03:55:34;7.40;;;6.32;;
72273;SDS011;60208;48.692;8.948;2022-11-20T03:57:59;11.30;;;6.53;;
72273;SDS011;60208;48.692;8.948;2022-11-20T04:00:24;7.72;;;6.03;;
72273;SDS011;60208;48.692;8.948;2022-11-20T04:02:50;10.77;;;6.47;;
72273;SDS011;60208;48.692;8.948;2022-11-20T04:05:15;9.80;;;5.90;;
72273;SDS011;60208;48.692;8.948;2022-11-20T04:07:41;8.07;;;6.13;;
72273;SDS011;60208;48.692;8.948;2022-11-20T04:10:06;9.05;;;5.85;;
72273;SDS011;60208;48.692;8.948;2022-11-20T04:12:32;6.70;;;4.95;;
72273;SDS011;60208;48.692;8.948;2022-11-20T04:14:58;7.22;;;5.40;;
72273;SDS011;60208;48.692;8.948;2022-11-20T04:17:23;9.63;;;5.07;;
72273;SDS011;60208;48.692;8.948;2022-11-20T04:19:50;7.60;;;5.10;;
72273;SDS011;60208;48.692;8.948;2022-11-20T04:22:16;6.80;;;5.05;;
72273;SDS011;60208;48.692;8.948;2022-11-20T04:24:41;8.75;;;5.60;;
72273;SDS011;60208;48.692;8.948;2022-11-20T04:27:06;7.45;;;5.43;;
72273;SDS011;60208;48.692;8.948;2022-11-20T04:29:32;7.40;;;5.28;;
72273;SDS011;60208;48.692;8.948;2022-11-20T04:31:57;8.68;;;5.40;;
72273;SDS011;60208;48.692;8.948;2022-11-20T04:34:22;6.72;;;5.47;;
72273;SDS011;60208;48.692;8.948;2022-11-20T04:36:48;7.07;;;5.20;;
72273;SDS011;60208;48.692;8.948;2022-11-20T04:39:13;7.38;;;5.40;;
72273;SDS011;60208;48.692;8.948;2022-11-20T04:41:40;6.88;;;4.90;;
72273;SDS011;60208;48.692;8.948;2022-11-20T04:44:05;7.55;;;5.50;;
72273;SDS011;60208;48.692;8.948;2022-11-20T04:46:32;5.35;;;4.70;;
72273;SDS011;60208;48.692;8.948;2022-11-20T04:48:59;6.18;;;5.03;;
72273;SDS011;60208;48.692;8.948;2022-11-20T04:51:25;6.38;;;5.20;;
72273;SDS011;60208;48.692;8.948;2022-11-20T04:53:50;7.22;;;5.25;;
72273;SDS011;60208;48.692;8.948;2022-11-20T04:56:16;8.15;;;4.85;;
72273;SDS011;60208;48.692;8.948;2022-11-20T04:58:41;6.18;;;4.75;;
72273;SDS011;60208;48.692;8.948;2022-11-20T05:01:11;9.38;;;5.38;;
72273;SDS011;60208;48.692;8.948;2022-11-20T05:03:38;8.02;;;5.30;;
72273;SDS011;60208;48.692;8.948;2022-11-20T05:06:05;6.95;;;4.90;;
72273;SDS011;60208;48.692;8.948;2022-11-20T05:08:31;6.97;;;5.20;;
72273;SDS011;60208;48.692;8.948;2022-11-20T05:11:03;6.05;;;5.25;;
72273;SDS011;60208;48.692;8.948;2022-11-20T05:13:29;6.22;;;5.18;;
72273;SDS011;60208;48.692;8.948;2022-11-20T05:15:54;9.55;;;5.00;;
72273;SDS011;60208;48.692;8.948;2022-11-20T05:18:19;6.00;;;5.20;;
72273;SDS011;60208;48.692;8.948;2022-11-20T05:20:45;6.88;;;4.88;;
72273;SDS011;60208;48.692;8.948;2022-11-20T05:23:10;6.47;;;4.88;;
72273;SDS011;60208;48.692;8.948;2022-11-20T05:25:35;6.20;;;4.35;;
72273;SDS011;60208;48.692;8.948;2022-11-20T05:28:01;8.18;;;4.57;;
72273;SDS011;60208;48.692;8.948;2022-11-20T05:30:26;6.38;;;4.60;;
72273;SDS011;60208;48.692;8.948;2022-11-20T05:32:51;6.45;;;4.97;;
72273;SDS011;60208;48.692;8.948;2022-11-20T05:35:17;5.32;;;4.57;;
72273;SDS011;60208;48.692;8.948;2022-11-20T05:37:42;6.70;;;5.18;;
72273;SDS011;60208;48.692;8.948;2022-11-20T05:40:07;5.68;;;5.00;;
72273;SDS011;60208;48.692;8.948;2022-11-20T05:42:33;7.43;;;4.70;;
72273;SDS011;60208;48.692;8.948;2022-11-20T05:45:03;4.95;;;4.45;;
72273;SDS011;60208;48.692;8.948;2022-11-20T05:47:31;6.32;;;5.18;;
72273;SDS011;60208;48.692;8.948;2022-11-20T05:49:57;5.78;;;4.30;;
72273;SDS011;60208;48.692;8.948;2022-11-20T05:52:23;7.20;;;4.20;;
72273;SDS011;60208;48.692;8.948;2022-11-20T05:54:48;5.63;;;4.10;;
72273;SDS011;60208;48.692;8.948;2022-11-20T05:57:14;5.78;;;4.07;;
72273;SDS011;60208;48.692;8.948;2022-11-20T05:59:39;5.82;;;4.30;;
72273;SDS011;60208;48.692;8.948;2022-11-20T06:02:05;5.03;;;4.38;;
72273;SDS011;60208;48.692;8.948;2022-11-20T06:04:30;6.00;;;4.05;;
72273;SDS011;60208;48.692;8.948;2022-11-20T06:06:55;8.20;;;4.05;;
72273;SDS011;60208;48.692;8.948;2022-11-20T06:09:21;4.97;;;3.88;;
72273;SDS011;60208;48.692;8.948;2022-11-20T06:11:46;4.30;;;3.90;;
72273;SDS011;60208;48.692;8.948;2022-11-20T06:14:11;4.22;;;3.75;;
72273;SDS011;60208;48.692;8.948;2022-11-20T06:16:37;5.07;;;3.83;;
72273;SDS011;60208;48.692;8.948;2022-11-20T06:19:02;6.20;;;3.92;;
72273;SDS011;60208;48.692;8.948;2022-11-20T06:21:27;4.00;;;3.60;;
72273;SDS011;60208;48.692;8.948;2022-11-20T06:23:53;4.25;;;3.40;;
72273;SDS011;60208;48.692;8.948;2022-11-20T06:26:20;4.03;;;3.60;;
72273;SDS011;60208;48.692;8.948;2022-11-20T06:28:47;4.45;;;3.75;;
72273;SDS011;60208;48.692;8.948;2022-11-20T06:31:13;6.35;;;3.45;;
72273;SDS011;60208;48.692;8.948;2022-11-20T06:33:40;5.78;;;3.83;;
72273;SDS011;60208;48.692;8.948;2022-11-20T06:36:07;4.38;;;3.88;;
72273;SDS011;60208;48.692;8.948;2022-11-20T06:38:32;4.40;;;3.50;;
72273;SDS011;60208;48.692;8.948;2022-11-20T06:40:58;4.18;;;3.50;;
72273;SDS011;60208;48.692;8.948;2022-11-20T06:43:23;4.25;;;3.53;;
72273;SDS011;60208;48.692;8.948;2022-11-20T06:45:53;4.45;;;3.60;;
72273;SDS011;60208;48.692;8.948;2022-11-20T06:48:18;4.90;;;3.80;;
72273;SDS011;60208;48.692;8.948;2022-11-20T06:50:44;7.70;;;3.72;;
72273;SDS011;60208;48.692;8.948;2022-11-20T06:53:09;5.38;;;3.55;;
72273;SDS011;60208;48.692;8.948;2022-11-20T06:55:34;6.65;;;3.53;;
72273;SDS011;60208;48.692;8.948;2022-11-20T06:58:00;4.78;;;3.72;;
72273;SDS011;60208;48.692;8.948;2022-11-20T07:00:25;4.28;;;3.15;;
72273;SDS011;60208;48.692;8.948;2022-11-20T07:02:51;5.07;;;3.58;;
72273;SDS011;60208;48.692;8.948;2022-11-20T07:05:17;4.85;;;3.50;;
72273;SDS011;60208;48.692;8.948;2022-11-20T07:07:42;4.30;;;3.58;;
72273;SDS011;60208;48.692;8.948;2022-11-20T07:10:08;4.43;;;3.50;;
72273;SDS011;60208;48.692;8.948;2022-11-20T07:12:33;4.63;;;3.45;;
72273;SDS011;60208;48.692;8.948;2022-11-20T07:14:59;4.10;;;3.40;;
72273;SDS011;60208;48.692;8.948;2022-11-20T07:17:24;3.97;;;3.42;;
72273;SDS011;60208;48.692;8.948;2022-11-20T07:19:50;6.55;;;3.40;;
72273;SDS011;60208;48.692;8.948;2022-11-20T07:22:15;3.88;;;3.47;;
72273;SDS011;60208;48.692;8.948;2022-11-20T07:24:41;4.65;;;3.05;;
72273;SDS011;60208;48.692;8.948;2022-11-20T07:27:06;3.67;;;3.17;;
72273;SDS011;60208;48.692;8.948;2022-11-20T07:29:31;6.00;;;3.80;;
72273;SDS011;60208;48.692;8.948;2022-11-20T07:31:57;3.75;;;3.25;;
72273;SDS011;60208;48.692;8.948;2022-11-20T07:34:22;5.93;;;3.42;;
72273;SDS011;60208;48.692;8.948;2022-11-20T07:36:48;7.85;;;6.68;;
72273;SDS011;60208;48.692;8.948;2022-11-20T07:39:13;10.65;;;9.32;;
72273;SDS011;60208;48.692;8.948;2022-11-20T07:41:39;6.20;;;4.35;;
72273;SDS011;60208;48.692;8.948;2022-11-20T07:44:04;3.97;;;3.20;;
72273;SDS011;60208;48.692;8.948;2022-11-20T07:46:29;3.80;;;3.22;;
72273;SDS011;60208;48.692;8.948;2022-11-20T07:48:55;4.22;;;3.35;;
72273;SDS011;60208;48.692;8.948;2022-11-20T07:51:20;4.72;;;3.67;;
72273;SDS011;60208;48.692;8.948;2022-11-20T07:53:46;4.95;;;3.38;;
72273;SDS011;60208;48.692;8.948;2022-11-20T07:56:11;6.93;;;3.38;;
72273;SDS011;60208;48.692;8.948;2022-11-20T07:58:38;6.32;;;3.67;;
72273;SDS011;60208;48.692;8.948;2022-11-20T08:01:05;3.55;;;3.25;;
72273;SDS011;60208;48.692;8.948;2022-11-20T08:03:31;5.47;;;3.20;;
72273;SDS011;60208;48.692;8.948;2022-11-20T08:06:00;3.33;;;2.90;;
72273;SDS011;60208;48.692;8.948;2022-11-20T08:08:28;5.97;;;4.95;;
72273;SDS011;60208;48.692;8.948;2022-11-20T08:10:53;3.55;;;3.20;;
72273;SDS011;60208;48.692;8.948;2022-11-20T08:13:39;3.83;;;2.55;;
72273;SDS011;60208;48.692;8.948;2022-11-20T08:16:23;3.15;;;2.65;;
72273;SDS011;60208;48.692;8.948;2022-11-20T08:18:48;3.13;;;2.08;;
72273;SDS011;60208;48.692;8.948;2022-11-20T08:21:14;2.58;;;2.10;;
72273;SDS011;60208;48.692;8.948;2022-11-20T08:23:40;2.95;;;1.95;;
72273;SDS011;60208;48.692;8.948;2022-11-20T08:26:05;2.85;;;1.85;;
72273;SDS011;60208;48.692;8.948;2022-11-20T08:28:30;1.75;;;1.65;;
72273;SDS011;60208;48.692;8.948;2022-11-20T08:30:59;3.08;;;2.03;;
72273;SDS011;60208;48.692;8.948;2022-11-20T08:33:25;3.33;;;1.98;;
72273;SDS011;60208;48.692;8.948;2022-11-20T08:35:50;2.60;;;1.55;;
72273;SDS011;60208;48.692;8.948;2022-11-20T08:38:15;1.88;;;1.48;;
72273;SDS011;60208;48.692;8.948;2022-11-20T08:40:41;1.52;;;1.42;;
72273;SDS011;60208;48.692;8.948;2022-11-20T08:43:26;2.00;;;1.90;;
72273;SDS011;60208;48.692;8.948;2022-11-20T08:45:51;2.22;;;1.92;;
72273;SDS011;60208;48.692;8.948;2022-11-20T08:48:17;1.60;;;1.00;;
72273;SDS011;60208;48.692;8.948;2022-11-20T08:50:42;2.70;;;1.98;;
72273;SDS011;60208;48.692;8.948;2022-11-20T08:53:07;1.88;;;1.55;;
72273;SDS011;60208;48.692;8.948;2022-11-20T08:55:33;1.17;;;1.08;;
72273;SDS011;60208;48.692;8.948;2022-11-20T08:58:04;2.63;;;2.08;;
72273;SDS011;60208;48.692;8.948;2022-11-20T09:00:29;2.22;;;1.70;;
72273;SDS011;60208;48.692;8.948;2022-11-20T09:02:55;1.48;;;1.38;;
72273;SDS011;60208;48.692;8.948;2022-11-20T09:05:20;2.85;;;2.55;;
72273;SDS011;60208;48.692;8.948;2022-11-20T09:07:45;2.92;;;2.60;;
72273;SDS011;60208;48.692;8.948;2022-11-20T09:10:11;3.05;;;2.75;;
72273;SDS011;60208;48.692;8.948;2022-11-20T09:12:36;1.50;;;1.40;;
72273;SDS011;60208;48.692;8.948;2022-11-20T09:15:02;4.45;;;4.05;;
72273;SDS011;60208;48.692;8.948;2022-11-20T09:17:27;0.70;;;0.70;;
72273;SDS011;60208;48.692;8.948;2022-11-20T09:19:52;3.08;;;2.85;;
72273;SDS011;60208;48.692;8.948;2022-11-20T09:22:18;3.05;;;2.85;;
72273;SDS011;60208;48.692;8.948;2022-11-20T09:24:43;2.60;;;2.28;;
72273;SDS011;60208;48.692;8.948;2022-11-20T09:27:08;4.15;;;3.33;;
72273;SDS011;60208;48.692;8.948;2022-11-20T09:29:34;3.90;;;2.53;;
72273;SDS011;60208;48.692;8.948;2022-11-20T09:32:00;1.80;;;1.40;;
72273;SDS011;60208;48.692;8.948;2022-11-20T09:34:25;2.40;;;2.17;;
72273;SDS011;60208;48.692;8.948;2022-11-20T09:36:50;1.50;;;1.05;;
72273;SDS011;60208;48.692;8.948;2022-11-20T09:39:16;1.02;;;0.93;;
72273;SDS011;60208;48.692;8.948;2022-11-20T09:42:01;1.77;;;1.15;;
72273;SDS011;60208;48.692;8.948;2022-11-20T09:47:01;0.85;;;0.60;;
72273;SDS011;60208;48.692;8.948;2022-11-20T09:51:59;1.35;;;1.13;;
72273;SDS011;60208;48.692;8.948;2022-11-20T09:54:27;1.80;;;1.27;;
72273;SDS011;60208;48.692;8.948;2022-11-20T09:56:59;0.98;;;0.90;;
72273;SDS011;60208;48.692;8.948;2022-11-20T10:00:00;0.70;;;0.70;;
72273;SDS011;60208;48.692;8.948;2022-11-20T10:02:30;0.80;;;0.80;;
72273;SDS011;60208;48.692;8.948;2022-11-20T10:05:12;2.08;;;0.90;;
72273;SDS011;60208;48.692;8.948;2022-11-20T10:10:41;0.80;;;0.80;;
72273;SDS011;60208;48.692;8.948;2022-11-20T10:31:40;1.45;;;1.35;;
72273;SDS011;60208;48.692;8.948;2022-11-20T10:36:56;1.50;;;1.40;;
72273;SDS011;60208;48.692;8.948;2022-11-20T10:41:53;2.50;;;1.92;;
72273;SDS011;60208;48.692;8.948;2022-11-20T10:44:20;1.77;;;1.67;;
72273;SDS011;60208;48.692;8.948;2022-11-20T10:47:14;2.15;;;1.60;;
72273;SDS011;60208;48.692;8.948;2022-11-20T10:49:41;1.35;;;1.20;;
72273;SDS011;60208;48.692;8.948;2022-11-20T10:52:10;1.73;;;1.30;;
72273;SDS011;60208;48.692;8.948;2022-11-20T11:00:03;2.47;;;1.73;;
72273;SDS011;60208;48.692;8.948;2022-11-20T11:02:43;3.33;;;2.35;;
72273;SDS011;60208;48.692;8.948;2022-11-20T11:07:42;2.58;;;2.05;;
72273;SDS011;60208;48.692;8.948;2022-11-20T11:12:46;4.82;;;1.88;;
72273;SDS011;60208;48.692;8.948;2022-11-20T11:15:24;2.88;;;1.80;;
72273;SDS011;60208;48.692;8.948;2022-11-20T11:17:50;2.50;;;1.58;;
72273;SDS011;60208;48.692;8.948;2022-11-20T11:20:20;2.50;;;1.70;;
72273;SDS011;60208;48.692;8.948;2022-11-20T11:22:57;3.58;;;1.70;;
72273;SDS011;60208;48.692;8.948;2022-11-20T11:27:50;3.70;;;1.60;;
72273;SDS011;60208;48.692;8.948;2022-11-20T11:30:18;3.38;;;1.50;;
72273;SDS011;60208;48.692;8.948;2022-11-20T11:32:44;2.53;;;1.58;;
72273;SDS011;60208;48.692;8.948;2022-11-20T11:35:31;1.83;;;1.08;;
72273;SDS011;60208;48.692;8.948;2022-11-20T11:38:03;2.45;;;1.08;;
72273;SDS011;60208;48.692;8.948;2022-11-20T11:40:34;2.10;;;1.20;;
72273;SDS011;60208;48.692;8.948;2022-11-20T11:43:01;2.38;;;1.10;;
72273;SDS011;60208;48.692;8.948;2022-11-20T11:45:29;2.42;;;1.00;;
72273;SDS011;60208;48.692;8.948;2022-11-20T11:47:55;2.92;;;1.08;;
72273;SDS011;60208;48.692;8.948;2022-11-20T11:50:31;2.08;;;1.13;;
72273;SDS011;60208;48.692;8.948;2022-11-20T12:07:03;2.08;;;1.00;;
72273;SDS011;60208;48.692;8.948;2022-11-20T12:09:37;1.27;;;1.00;;
72273;SDS011;60208;48.692;8.948;2022-11-20T12:12:05;2.25;;;0.90;;
72273;SDS011;60208;48.692;8.948;2022-11-20T12:14:39;2.05;;;0.80;;
72273;SDS011;60208;48.692;8.948;2022-11-20T12:17:08;1.15;;;0.93;;
72273;SDS011;60208;48.692;8.948;2022-11-20T12:19:36;0.98;;;0.88;;
72273;SDS011;60208;48.692;8.948;2022-11-20T12:24:55;2.67;;;0.93;;
72273;SDS011;60208;48.692;8.948;2022-11-20T12:30:09;3.13;;;1.40;;
72273;SDS011;60208;48.692;8.948;2022-11-20T12:35:47;3.05;;;1.30;;
72273;SDS011;60208;48.692;8.948;2022-11-20T12:43:57;1.45;;;0.80;;
72273;SDS011;60208;48.692;8.948;2022-11-20T12:46:47;2.15;;;0.90;;
72273;SDS011;60208;48.692;8.948;2022-11-20T12:49:27;1.33;;;0.90;;
72273;SDS011;60208;48.692;8.948;2022-11-20T12:52:20;1.17;;;0.68;;
72273;SDS011;60208;48.692;8.948;2022-11-20T13:00:26;2.30;;;0.90;;
72273;SDS011;60208;48.692;8.948;2022-11-20T13:14:12;2.72;;;0.80;;
72273;SDS011;60208;48.692;8.948;2022-11-20T13:16:50;2.00;;;1.00;;
72273;SDS011;60208;48.692;8.948;2022-11-20T13:19:20;1.55;;;0.68;;
72273;SDS011;60208;48.692;8.948;2022-11-20T13:21:46;3.08;;;0.90;;
72273;SDS011;60208;48.692;8.948;2022-11-20T13:26:45;2.53;;;1.00;;
72273;SDS011;60208;48.692;8.948;2022-11-20T13:29:12;2.00;;;1.23;;
72273;SDS011;60208;48.692;8.948;2022-11-20T13:31:43;2.17;;;1.13;;
72273;SDS011;60208;48.692;8.948;2022-11-20T13:34:12;1.75;;;0.82;;
72273;SDS011;60208;48.692;8.948;2022-11-20T13:36:48;3.10;;;1.25;;
72273;SDS011;60208;48.692;8.948;2022-11-20T13:39:23;1.85;;;1.05;;
72273;SDS011;60208;48.692;8.948;2022-11-20T13:41:55;1.40;;;0.90;;
72273;SDS011;60208;48.692;8.948;2022-11-20T13:44:37;2.40;;;0.80;;
72273;SDS011;60208;48.692;8.948;2022-11-20T13:47:17;2.15;;;0.93;;
72273;SDS011;60208;48.692;8.948;2022-11-20T13:49:46;2.25;;;0.88;;
72273;SDS011;60208;48.692;8.948;2022-11-20T13:54:51;1.40;;;0.90;;
72273;SDS011;60208;48.692;8.948;2022-11-20T13:57:35;2.53;;;1.40;;
72273;SDS011;60208;48.692;8.948;2022-11-20T14:00:19;2.83;;;0.93;;
72273;SDS011;60208;48.692;8.948;2022-11-20T14:02:49;1.20;;;0.90;;
72273;SDS011;60208;48.692;8.948;2022-11-20T14:05:23;3.13;;;0.90;;
72273;SDS011;60208;48.692;8.948;2022-11-20T14:07:49;3.40;;;1.27;;
72273;SDS011;60208;48.692;8.948;2022-11-20T14:10:34;2.00;;;1.10;;
72273;SDS011;60208;48.692;8.948;2022-11-20T14:13:09;1.00;;;0.80;;
72273;SDS011;60208;48.692;8.948;2022-11-20T14:15:36;2.88;;;1.10;;
72273;SDS011;60208;48.692;8.948;2022-11-20T14:18:11;1.90;;;1.05;;
72273;SDS011;60208;48.692;8.948;2022-11-20T14:20:43;1.77;;;1.10;;
72273;SDS011;60208;48.692;8.948;2022-11-20T14:23:09;2.13;;;1.33;;
72273;SDS011;60208;48.692;8.948;2022-11-20T14:25:35;2.50;;;1.08;;
72273;SDS011;60208;48.692;8.948;2022-11-20T14:28:01;4.50;;;1.30;;
72273;SDS011;60208;48.692;8.948;2022-11-20T14:30:28;2.83;;;1.00;;
72273;SDS011;60208;48.692;8.948;2022-11-20T14:33:03;3.25;;;1.10;;
72273;SDS011;60208;48.692;8.948;2022-11-20T14:35:30;3.55;;;1.08;;
72273;SDS011;60208;48.692;8.948;2022-11-20T14:37:58;2.00;;;0.98;;
72273;SDS011;60208;48.692;8.948;2022-11-20T14:40:32;5.22;;;2.05;;
72273;SDS011;60208;48.692;8.948;2022-11-20T14:43:04;3.97;;;1.35;;
72273;SDS011;60208;48.692;8.948;2022-11-20T14:45:41;3.10;;;1.40;;
72273;SDS011;60208;48.692;8.948;2022-11-20T14:48:08;3.78;;;1.60;;
72273;SDS011;60208;48.692;8.948;2022-11-20T14:50:34;1.88;;;1.30;;
72273;SDS011;60208;48.692;8.948;2022-11-20T14:53:00;2.90;;;1.60;;
72273;SDS011;60208;48.692;8.948;2022-11-20T14:55:27;2.47;;;1.50;;
72273;SDS011;60208;48.692;8.948;2022-11-20T14:57:54;3.20;;;1.50;;
72273;SDS011;60208;48.692;8.948;2022-11-20T15:00:21;6.82;;;2.78;;
72273;SDS011;60208;48.692;8.948;2022-11-20T15:02:48;2.58;;;1.55;;
72273;SDS011;60208;48.692;8.948;2022-11-20T15:05:15;2.28;;;1.40;;
72273;SDS011;60208;48.692;8.948;2022-11-20T15:07:44;2.20;;;1.73;;
72273;SDS011;60208;48.692;8.948;2022-11-20T15:10:24;5.63;;;1.60;;
72273;SDS011;60208;48.692;8.948;2022-11-20T15:12:55;2.45;;;1.52;;
72273;SDS011;60208;48.692;8.948;2022-11-20T15:15:50;3.33;;;1.88;;
72273;SDS011;60208;48.692;8.948;2022-11-20T15:18:17;2.20;;;1.63;;
72273;SDS011;60208;48.692;8.948;2022-11-20T15:20:44;2.90;;;1.40;;
72273;SDS011;60208;48.692;8.948;2022-11-20T15:23:13;3.70;;;1.80;;
72273;SDS011;60208;48.692;8.948;2022-11-20T15:25:45;3.15;;;1.65;;
72273;SDS011;60208;48.692;8.948;2022-11-20T15:28:21;3.63;;;1.75;;
72273;SDS011;60208;48.692;8.948;2022-11-20T15:30:50;2.30;;;1.40;;
72273;SDS011;60208;48.692;8.948;2022-11-20T15:33:16;4.20;;;3.20;;
72273;SDS011;60208;48.692;8.948;2022-11-20T15:35:42;3.03;;;2.40;;
72273;SDS011;60208;48.692;8.948;2022-11-20T15:38:07;6.40;;;3.30;;
72273;SDS011;60208;48.692;8.948;2022-11-20T15:40:33;4.03;;;1.98;;
72273;SDS011;60208;48.692;8.948;2022-11-20T15:42:58;4.75;;;2.03;;
72273;SDS011;60208;48.692;8.948;2022-11-20T15:45:39;2.97;;;1.98;;
72273;SDS011;60208;48.692;8.948;2022-11-20T15:48:13;2.92;;;2.10;;
72273;SDS011;60208;48.692;8.948;2022-11-20T15:53:36;2.42;;;2.08;;
72273;SDS011;60208;48.692;8.948;2022-11-20T15:56:02;2.85;;;2.00;;
72273;SDS011;60208;48.692;8.948;2022-11-20T15:58:28;3.20;;;2.30;;
72273;SDS011;60208;48.692;8.948;2022-11-20T16:00:53;4.05;;;2.60;;
72273;SDS011;60208;48.692;8.948;2022-11-20T16:03:19;4.60;;;2.50;;
72273;SDS011;60208;48.692;8.948;2022-11-20T16:05:44;5.50;;;2.60;;
72273;SDS011;60208;48.692;8.948;2022-11-20T16:08:10;4.53;;;2.67;;
72273;SDS011;60208;48.692;8.948;2022-11-20T16:10:35;4.63;;;2.92;;
72273;SDS011;60208;48.692;8.948;2022-11-20T16:13:01;6.00;;;2.70;;
72273;SDS011;60208;48.692;8.948;2022-11-20T16:15:52;5.63;;;2.83;;
72273;SDS011;60208;48.692;8.948;2022-11-20T16:18:22;3.85;;;2.58;;
72273;SDS011;60208;48.692;8.948;2022-11-20T16:20:51;4.40;;;3.00;;
72273;SDS011;60208;48.692;8.948;2022-11-20T16:23:17;4.55;;;3.15;;
72273;SDS011;60208;48.692;8.948;2022-11-20T16:25:43;7.03;;;3.25;;
72273;SDS011;60208;48.692;8.948;2022-11-20T16:28:09;4.80;;;2.90;;
72273;SDS011;60208;48.692;8.948;2022-11-20T16:30:35;5.68;;;3.60;;
72273;SDS011;60208;48.692;8.948;2022-11-20T16:33:00;5.30;;;3.53;;
72273;SDS011;60208;48.692;8.948;2022-11-20T16:35:28;6.82;;;3.97;;
72273;SDS011;60208;48.692;8.948;2022-11-20T16:37:54;9.07;;;4.55;;
72273;SDS011;60208;48.692;8.948;2022-11-20T16:40:20;21.42;;;11.10;;
72273;SDS011;60208;48.692;8.948;2022-11-20T16:42:46;22.23;;;10.80;;
72273;SDS011;60208;48.692;8.948;2022-11-20T16:45:12;6.32;;;4.25;;
72273;SDS011;60208;48.692;8.948;2022-11-20T16:47:37;3.53;;;3.20;;
72273;SDS011;60208;48.692;8.948;2022-11-20T16:50:03;4.45;;;3.03;;
72273;SDS011;60208;48.692;8.948;2022-11-20T16:52:30;4.85;;;3.08;;